sensor_id;sensor_type;location;lat;lon;timestamp;temperature;humidity
21487;DHT22;10905;50.822;4.336;2022-12-07T00:01:11;6.40;99.90
21487;DHT22;10905;50.822;4.336;2022-12-07T00:03:37;6.40;99.90
21487;DHT22;10905;50.822;4.336;2022-12-07T00:06:05;6.30;99.90
21487;DHT22;10905;50.822;4.336;2022-12-07T00:08:32;6.10;99.90
21487;DHT22;10905;50.822;4.336;2022-12-07T00:11:07;6.00;99.90
21487;DHT22;10905;50.822;4.336;2022-12-07T00:13:34;6.00;99.90
21487;DHT22;10905;50.822;4.336;2022-12-07T00:16:05;5.90;99.90
21487;DHT22;10905;50.822;4.336;2022-12-07T00:18:31;5.80;99.90
21487;DHT22;10905;50.822;4.336;2022-12-07T00:21:03;5.90;99.90
21487;DHT22;10905;50.822;4.336;2022-12-07T00:23:29;5.90;99.90
21487;DHT22;10905;50.822;4.336;2022-12-07T00:25:55;5.90;99.90
21487;DHT22;10905;50.822;4.336;2022-12-07T00:28:20;5.90;99.90
21487;DHT22;10905;50.822;4.336;2022-12-07T00:30:46;5.90;99.90
21487;DHT22;10905;50.822;4.336;2022-12-07T00:33:11;5.80;99.90
21487;DHT22;10905;50.822;4.336;2022-12-07T00:35:37;6.00;99.90
21487;DHT22;10905;50.822;4.336;2022-12-07T00:38:02;5.90;99.90
21487;DHT22;10905;50.822;4.336;2022-12-07T00:40:28;5.90;99.90
21487;DHT22;10905;50.822;4.336;2022-12-07T00:42:54;5.80;99.90
21487;DHT22;10905;50.822;4.336;2022-12-07T00:45:19;5.80;99.90
21487;DHT22;10905;50.822;4.336;2022-12-07T00:47:45;5.80;99.90
21487;DHT22;10905;50.822;4.336;2022-12-07T00:50:10;5.90;99.90
21487;DHT22;10905;50.822;4.336;2022-12-07T00:52:36;5.80;99.90
21487;DHT22;10905;50.822;4.336;2022-12-07T00:55:02;5.70;99.90
21487;DHT22;10905;50.822;4.336;2022-12-07T00:57:27;5.70;99.90
21487;DHT22;10905;50.822;4.336;2022-12-07T00:59:53;5.70;99.90
21487;DHT22;10905;50.822;4.336;2022-12-07T01:02:23;5.70;99.90
21487;DHT22;10905;50.822;4.336;2022-12-07T01:04:48;5.70;99.90
21487;DHT22;10905;50.822;4.336;2022-12-07T01:07:14;5.60;99.90
21487;DHT22;10905;50.822;4.336;2022-12-07T01:09:40;5.60;99.90
21487;DHT22;10905;50.822;4.336;2022-12-07T01:12:05;5.50;99.90
21487;DHT22;10905;50.822;4.336;2022-12-07T01:14:31;5.40;99.90
21487;DHT22;10905;50.822;4.336;2022-12-07T01:16:56;5.40;99.90
21487;DHT22;10905;50.822;4.336;2022-12-07T01:19:22;5.30;99.90
21487;DHT22;10905;50.822;4.336;2022-12-07T01:21:48;5.30;99.90
21487;DHT22;10905;50.822;4.336;2022-12-07T01:24:13;5.40;99.90
21487;DHT22;10905;50.822;4.336;2022-12-07T01:26:39;5.50;99.90
21487;DHT22;10905;50.822;4.336;2022-12-07T01:29:04;5.50;99.90
21487;DHT22;10905;50.822;4.336;2022-12-07T01:31:30;5.40;99.90
21487;DHT22;10905;50.822;4.336;2022-12-07T01:33:58;5.40;99.90
21487;DHT22;10905;50.822;4.336;2022-12-07T01:36:29;5.40;99.90
21487;DHT22;10905;50.822;4.336;2022-12-07T01:38:58;5.50;99.90
21487;DHT22;10905;50.822;4.336;2022-12-07T01:41:30;5.50;99.90
21487;DHT22;10905;50.822;4.336;2022-12-07T01:44:25;5.40;99.90
21487;DHT22;10905;50.822;4.336;2022-12-07T01:46:55;5.40;99.90
21487;DHT22;10905;50.822;4.336;2022-12-07T01:49:46;5.30;99.90
21487;DHT22;10905;50.822;4.336;2022-12-07T01:52:24;5.40;99.90
21487;DHT22;10905;50.822;4.336;2022-12-07T01:54:53;5.40;99.90
21487;DHT22;10905;50.822;4.336;2022-12-07T01:57:20;5.40;99.90
21487;DHT22;10905;50.822;4.336;2022-12-07T01:59:47;5.50;99.90
21487;DHT22;10905;50.822;4.336;2022-12-07T02:02:26;5.40;99.90
21487;DHT22;10905;50.822;4.336;2022-12-07T02:04:53;5.40;99.90
21487;DHT22;10905;50.822;4.336;2022-12-07T02:07:22;5.50;99.90
21487;DHT22;10905;50.822;4.336;2022-12-07T02:09:48;5.40;99.90
21487;DHT22;10905;50.822;4.336;2022-12-07T02:12:14;5.50;99.90
21487;DHT22;10905;50.822;4.336;2022-12-07T02:14:40;5.50;99.90
21487;DHT22;10905;50.822;4.336;2022-12-07T02:17:21;5.60;99.90
21487;DHT22;10905;50.822;4.336;2022-12-07T02:20:12;5.70;99.90
21487;DHT22;10905;50.822;4.336;2022-12-07T02:25:55;5.50;99.90
21487;DHT22;10905;50.822;4.336;2022-12-07T02:28:34;5.60;99.90
21487;DHT22;10905;50.822;4.336;2022-12-07T02:31:12;5.70;99.90
21487;DHT22;10905;50.822;4.336;2022-12-07T02:33:45;5.70;99.90
21487;DHT22;10905;50.822;4.336;2022-12-07T02:36:20;5.70;99.90
21487;DHT22;10905;50.822;4.336;2022-12-07T02:39:01;5.80;99.90
21487;DHT22;10905;50.822;4.336;2022-12-07T02:41:46;5.80;99.90
21487;DHT22;10905;50.822;4.336;2022-12-07T02:44:19;5.80;99.90
21487;DHT22;10905;50.822;4.336;2022-12-07T02:47:15;5.70;99.90
21487;DHT22;10905;50.822;4.336;2022-12-07T02:49:42;5.80;99.90
21487;DHT22;10905;50.822;4.336;2022-12-07T02:52:08;5.80;99.90
21487;DHT22;10905;50.822;4.336;2022-12-07T02:54:34;5.80;99.90
21487;DHT22;10905;50.822;4.336;2022-12-07T02:57:14;5.70;99.90
21487;DHT22;10905;50.822;4.336;2022-12-07T03:02:59;5.60;99.90
21487;DHT22;10905;50.822;4.336;2022-12-07T03:11:06;5.40;99.90
21487;DHT22;10905;50.822;4.336;2022-12-07T03:13:45;5.30;99.90
21487;DHT22;10905;50.822;4.336;2022-12-07T03:16:16;5.40;99.90
21487;DHT22;10905;50.822;4.336;2022-12-07T03:19:08;5.30;99.90
21487;DHT22;10905;50.822;4.336;2022-12-07T03:21:40;5.30;99.90
21487;DHT22;10905;50.822;4.336;2022-12-07T03:24:14;5.20;99.90
21487;DHT22;10905;50.822;4.336;2022-12-07T03:26:44;5.30;99.90
21487;DHT22;10905;50.822;4.336;2022-12-07T03:29:28;5.30;99.90
21487;DHT22;10905;50.822;4.336;2022-12-07T03:32:02;5.30;99.90
21487;DHT22;10905;50.822;4.336;2022-12-07T03:34:45;5.30;99.90
21487;DHT22;10905;50.822;4.336;2022-12-07T03:37:25;5.30;99.90
21487;DHT22;10905;50.822;4.336;2022-12-07T03:42:20;5.50;99.90
21487;DHT22;10905;50.822;4.336;2022-12-07T03:44:45;5.50;99.90
21487;DHT22;10905;50.822;4.336;2022-12-07T03:50:09;5.70;99.90
21487;DHT22;10905;50.822;4.336;2022-12-07T03:53:11;5.70;99.90
21487;DHT22;10905;50.822;4.336;2022-12-07T03:55:42;5.60;99.90
21487;DHT22;10905;50.822;4.336;2022-12-07T03:58:11;5.40;99.90
21487;DHT22;10905;50.822;4.336;2022-12-07T04:00:37;5.40;99.90
21487;DHT22;10905;50.822;4.336;2022-12-07T04:03:03;5.40;99.90
21487;DHT22;10905;50.822;4.336;2022-12-07T04:05:29;5.30;99.90
21487;DHT22;10905;50.822;4.336;2022-12-07T04:07:55;5.30;99.90
21487;DHT22;10905;50.822;4.336;2022-12-07T04:10:21;5.30;99.90
21487;DHT22;10905;50.822;4.336;2022-12-07T04:12:46;5.40;99.90
21487;DHT22;10905;50.822;4.336;2022-12-07T04:15:12;5.30;99.90
21487;DHT22;10905;50.822;4.336;2022-12-07T04:17:38;5.40;99.90
21487;DHT22;10905;50.822;4.336;2022-12-07T04:20:05;5.30;99.90
21487;DHT22;10905;50.822;4.336;2022-12-07T04:22:31;5.30;99.90
21487;DHT22;10905;50.822;4.336;2022-12-07T04:24:56;5.30;99.90
21487;DHT22;10905;50.822;4.336;2022-12-07T04:27:22;5.30;99.90
21487;DHT22;10905;50.822;4.336;2022-12-07T04:29:48;5.30;99.90
21487;DHT22;10905;50.822;4.336;2022-12-07T04:32:13;5.20;99.90
21487;DHT22;10905;50.822;4.336;2022-12-07T04:34:39;5.20;99.90
21487;DHT22;10905;50.822;4.336;2022-12-07T04:37:05;5.20;99.90
21487;DHT22;10905;50.822;4.336;2022-12-07T04:39:32;5.20;99.90
21487;DHT22;10905;50.822;4.336;2022-12-07T04:41:58;5.20;99.90
21487;DHT22;10905;50.822;4.336;2022-12-07T04:44:25;5.20;99.90
21487;DHT22;10905;50.822;4.336;2022-12-07T04:46:51;5.20;99.90
21487;DHT22;10905;50.822;4.336;2022-12-07T04:49:18;5.30;99.90
21487;DHT22;10905;50.822;4.336;2022-12-07T04:51:45;5.30;99.90
21487;DHT22;10905;50.822;4.336;2022-12-07T04:54:12;5.30;99.90
21487;DHT22;10905;50.822;4.336;2022-12-07T04:56:37;5.20;99.90
21487;DHT22;10905;50.822;4.336;2022-12-07T04:59:03;5.30;99.90
21487;DHT22;10905;50.822;4.336;2022-12-07T05:01:29;5.40;99.90
21487;DHT22;10905;50.822;4.336;2022-12-07T05:03:55;5.30;99.90
21487;DHT22;10905;50.822;4.336;2022-12-07T05:06:21;5.40;99.90
21487;DHT22;10905;50.822;4.336;2022-12-07T05:08:46;5.40;99.90
21487;DHT22;10905;50.822;4.336;2022-12-07T05:11:13;5.30;99.90
21487;DHT22;10905;50.822;4.336;2022-12-07T05:13:58;5.30;99.90
21487;DHT22;10905;50.822;4.336;2022-12-07T05:16:24;5.30;99.90
21487;DHT22;10905;50.822;4.336;2022-12-07T05:18:50;5.30;99.90
21487;DHT22;10905;50.822;4.336;2022-12-07T05:21:15;5.20;99.90
21487;DHT22;10905;50.822;4.336;2022-12-07T05:23:41;5.20;99.90
21487;DHT22;10905;50.822;4.336;2022-12-07T05:26:07;5.20;99.90
21487;DHT22;10905;50.822;4.336;2022-12-07T05:28:32;5.20;99.90
21487;DHT22;10905;50.822;4.336;2022-12-07T05:30:58;5.20;99.90
21487;DHT22;10905;50.822;4.336;2022-12-07T05:33:23;5.20;99.90
21487;DHT22;10905;50.822;4.336;2022-12-07T05:35:49;5.30;99.90
21487;DHT22;10905;50.822;4.336;2022-12-07T05:38:15;5.30;99.90
21487;DHT22;10905;50.822;4.336;2022-12-07T05:40:40;5.30;99.90
21487;DHT22;10905;50.822;4.336;2022-12-07T05:43:06;5.30;99.90
21487;DHT22;10905;50.822;4.336;2022-12-07T05:45:31;5.20;99.90
21487;DHT22;10905;50.822;4.336;2022-12-07T05:47:57;5.20;99.90
21487;DHT22;10905;50.822;4.336;2022-12-07T05:50:23;5.20;99.90
21487;DHT22;10905;50.822;4.336;2022-12-07T05:52:48;5.20;99.90
21487;DHT22;10905;50.822;4.336;2022-12-07T05:55:14;5.20;99.90
21487;DHT22;10905;50.822;4.336;2022-12-07T05:57:39;5.20;99.90
21487;DHT22;10905;50.822;4.336;2022-12-07T06:00:25;5.20;99.90
21487;DHT22;10905;50.822;4.336;2022-12-07T06:02:51;5.30;99.90
21487;DHT22;10905;50.822;4.336;2022-12-07T06:05:16;5.40;99.90
21487;DHT22;10905;50.822;4.336;2022-12-07T06:07:42;5.50;99.90
21487;DHT22;10905;50.822;4.336;2022-12-07T06:10:08;5.40;99.90
21487;DHT22;10905;50.822;4.336;2022-12-07T06:12:33;5.40;99.90
21487;DHT22;10905;50.822;4.336;2022-12-07T06:14:59;5.40;99.90
21487;DHT22;10905;50.822;4.336;2022-12-07T06:17:25;5.40;99.90
21487;DHT22;10905;50.822;4.336;2022-12-07T06:19:51;5.40;99.90
21487;DHT22;10905;50.822;4.336;2022-12-07T06:22:17;5.20;99.90
21487;DHT22;10905;50.822;4.336;2022-12-07T06:24:43;5.20;99.90
21487;DHT22;10905;50.822;4.336;2022-12-07T06:27:09;5.30;99.90
21487;DHT22;10905;50.822;4.336;2022-12-07T06:29:34;5.50;99.90
21487;DHT22;10905;50.822;4.336;2022-12-07T06:32:00;5.50;99.90
21487;DHT22;10905;50.822;4.336;2022-12-07T06:34:26;5.40;99.90
21487;DHT22;10905;50.822;4.336;2022-12-07T06:36:52;5.30;99.90
21487;DHT22;10905;50.822;4.336;2022-12-07T06:39:22;5.40;99.90
21487;DHT22;10905;50.822;4.336;2022-12-07T06:41:48;5.30;99.90
21487;DHT22;10905;50.822;4.336;2022-12-07T06:44:14;5.40;99.90
21487;DHT22;10905;50.822;4.336;2022-12-07T06:46:40;5.40;99.90
21487;DHT22;10905;50.822;4.336;2022-12-07T06:49:06;5.50;99.90
21487;DHT22;10905;50.822;4.336;2022-12-07T06:51:33;5.50;99.90
21487;DHT22;10905;50.822;4.336;2022-12-07T06:54:00;5.50;99.90
21487;DHT22;10905;50.822;4.336;2022-12-07T06:56:26;5.50;99.90
21487;DHT22;10905;50.822;4.336;2022-12-07T06:58:51;5.50;99.90
21487;DHT22;10905;50.822;4.336;2022-12-07T07:01:18;5.50;99.90
21487;DHT22;10905;50.822;4.336;2022-12-07T07:03:44;5.40;99.90
21487;DHT22;10905;50.822;4.336;2022-12-07T07:06:11;5.40;99.90
21487;DHT22;10905;50.822;4.336;2022-12-07T07:08:37;5.40;99.90
21487;DHT22;10905;50.822;4.336;2022-12-07T07:11:04;5.50;99.90
21487;DHT22;10905;50.822;4.336;2022-12-07T07:13:29;5.30;99.90
21487;DHT22;10905;50.822;4.336;2022-12-07T07:15:55;5.30;99.90
21487;DHT22;10905;50.822;4.336;2022-12-07T07:18:21;5.20;99.90
21487;DHT22;10905;50.822;4.336;2022-12-07T07:20:47;5.30;99.90
21487;DHT22;10905;50.822;4.336;2022-12-07T07:23:13;5.30;99.90
21487;DHT22;10905;50.822;4.336;2022-12-07T07:25:38;5.30;99.90
21487;DHT22;10905;50.822;4.336;2022-12-07T07:28:04;5.30;99.90
21487;DHT22;10905;50.822;4.336;2022-12-07T07:30:30;5.30;99.90
21487;DHT22;10905;50.822;4.336;2022-12-07T07:33:05;5.50;99.90
21487;DHT22;10905;50.822;4.336;2022-12-07T07:35:33;5.50;99.90
21487;DHT22;10905;50.822;4.336;2022-12-07T07:38:00;5.60;99.90
21487;DHT22;10905;50.822;4.336;2022-12-07T07:40:26;5.70;99.90
21487;DHT22;10905;50.822;4.336;2022-12-07T07:42:53;5.70;99.90
21487;DHT22;10905;50.822;4.336;2022-12-07T07:45:20;5.70;99.90
21487;DHT22;10905;50.822;4.336;2022-12-07T07:47:47;5.60;99.90
21487;DHT22;10905;50.822;4.336;2022-12-07T07:50:13;5.50;99.90
21487;DHT22;10905;50.822;4.336;2022-12-07T07:52:39;5.40;99.90
21487;DHT22;10905;50.822;4.336;2022-12-07T07:55:05;5.40;99.90
21487;DHT22;10905;50.822;4.336;2022-12-07T07:57:31;5.50;99.90
21487;DHT22;10905;50.822;4.336;2022-12-07T07:59:56;5.70;99.90
21487;DHT22;10905;50.822;4.336;2022-12-07T08:02:22;5.70;99.90
21487;DHT22;10905;50.822;4.336;2022-12-07T08:04:48;5.50;99.90
21487;DHT22;10905;50.822;4.336;2022-12-07T08:07:15;5.70;99.90
21487;DHT22;10905;50.822;4.336;2022-12-07T08:09:41;5.70;99.90
21487;DHT22;10905;50.822;4.336;2022-12-07T08:12:07;5.60;99.90
21487;DHT22;10905;50.822;4.336;2022-12-07T08:14:33;5.60;99.90
21487;DHT22;10905;50.822;4.336;2022-12-07T08:16:59;5.50;99.90
21487;DHT22;10905;50.822;4.336;2022-12-07T08:19:25;5.60;99.90
21487;DHT22;10905;50.822;4.336;2022-12-07T08:21:51;5.50;99.90
21487;DHT22;10905;50.822;4.336;2022-12-07T08:24:16;5.40;99.90
21487;DHT22;10905;50.822;4.336;2022-12-07T08:26:42;5.30;99.90
21487;DHT22;10905;50.822;4.336;2022-12-07T08:29:08;5.30;99.90
21487;DHT22;10905;50.822;4.336;2022-12-07T08:31:34;5.40;99.90
21487;DHT22;10905;50.822;4.336;2022-12-07T08:34:00;5.40;99.90
21487;DHT22;10905;50.822;4.336;2022-12-07T08:36:25;5.40;99.90
21487;DHT22;10905;50.822;4.336;2022-12-07T08:38:51;5.40;99.90
21487;DHT22;10905;50.822;4.336;2022-12-07T08:41:17;5.40;99.90
21487;DHT22;10905;50.822;4.336;2022-12-07T08:43:43;5.50;99.90
21487;DHT22;10905;50.822;4.336;2022-12-07T08:49:02;5.60;99.90
21487;DHT22;10905;50.822;4.336;2022-12-07T08:51:28;5.70;99.90
21487;DHT22;10905;50.822;4.336;2022-12-07T08:53:55;5.80;99.90
21487;DHT22;10905;50.822;4.336;2022-12-07T08:56:22;5.80;99.90
21487;DHT22;10905;50.822;4.336;2022-12-07T08:58:48;5.90;99.90
21487;DHT22;10905;50.822;4.336;2022-12-07T09:01:14;6.00;99.90
21487;DHT22;10905;50.822;4.336;2022-12-07T09:03:40;6.10;99.90
21487;DHT22;10905;50.822;4.336;2022-12-07T09:06:06;6.10;99.90
21487;DHT22;10905;50.822;4.336;2022-12-07T09:08:38;6.20;99.90
21487;DHT22;10905;50.822;4.336;2022-12-07T09:11:05;6.20;99.90
21487;DHT22;10905;50.822;4.336;2022-12-07T09:13:31;6.40;99.90
21487;DHT22;10905;50.822;4.336;2022-12-07T09:15:56;6.50;99.90
21487;DHT22;10905;50.822;4.336;2022-12-07T09:18:22;6.40;99.90
21487;DHT22;10905;50.822;4.336;2022-12-07T09:20:51;6.30;99.90
21487;DHT22;10905;50.822;4.336;2022-12-07T09:23:17;6.40;99.90
21487;DHT22;10905;50.822;4.336;2022-12-07T09:25:42;6.60;99.90
21487;DHT22;10905;50.822;4.336;2022-12-07T09:28:08;6.70;99.90
21487;DHT22;10905;50.822;4.336;2022-12-07T09:30:34;6.60;99.90
21487;DHT22;10905;50.822;4.336;2022-12-07T09:33:01;6.60;99.90
21487;DHT22;10905;50.822;4.336;2022-12-07T09:35:26;6.60;99.90
21487;DHT22;10905;50.822;4.336;2022-12-07T09:37:52;6.60;99.90
21487;DHT22;10905;50.822;4.336;2022-12-07T09:40:20;6.70;99.90
21487;DHT22;10905;50.822;4.336;2022-12-07T09:42:55;6.60;99.90
21487;DHT22;10905;50.822;4.336;2022-12-07T09:45:24;6.80;99.90
21487;DHT22;10905;50.822;4.336;2022-12-07T09:47:51;6.90;99.90
21487;DHT22;10905;50.822;4.336;2022-12-07T09:50:26;6.90;99.90
21487;DHT22;10905;50.822;4.336;2022-12-07T09:52:52;6.90;99.90
21487;DHT22;10905;50.822;4.336;2022-12-07T09:55:29;6.90;99.90
21487;DHT22;10905;50.822;4.336;2022-12-07T09:57:57;7.00;99.90
21487;DHT22;10905;50.822;4.336;2022-12-07T10:00:24;7.10;99.90
21487;DHT22;10905;50.822;4.336;2022-12-07T10:05:30;7.00;99.90
21487;DHT22;10905;50.822;4.336;2022-12-07T10:07:56;7.00;99.90
21487;DHT22;10905;50.822;4.336;2022-12-07T10:10:33;7.10;99.90
21487;DHT22;10905;50.822;4.336;2022-12-07T10:13:02;7.10;99.90
21487;DHT22;10905;50.822;4.336;2022-12-07T10:16:02;7.20;99.90
21487;DHT22;10905;50.822;4.336;2022-12-07T10:18:36;7.30;99.90
21487;DHT22;10905;50.822;4.336;2022-12-07T10:23:31;7.30;99.90
21487;DHT22;10905;50.822;4.336;2022-12-07T10:25:56;7.20;99.90
21487;DHT22;10905;50.822;4.336;2022-12-07T10:28:22;7.20;99.90
21487;DHT22;10905;50.822;4.336;2022-12-07T10:33:35;7.10;99.90
21487;DHT22;10905;50.822;4.336;2022-12-07T10:38:49;7.20;99.90
21487;DHT22;10905;50.822;4.336;2022-12-07T10:41:16;7.20;99.90
21487;DHT22;10905;50.822;4.336;2022-12-07T10:43:50;7.30;99.90
21487;DHT22;10905;50.822;4.336;2022-12-07T10:57:31;7.70;99.90
21487;DHT22;10905;50.822;4.336;2022-12-07T11:05:37;7.90;99.90
21487;DHT22;10905;50.822;4.336;2022-12-07T11:19:17;8.30;99.90
21487;DHT22;10905;50.822;4.336;2022-12-07T11:22:03;8.30;99.90
21487;DHT22;10905;50.822;4.336;2022-12-07T11:25:02;8.40;99.90
21487;DHT22;10905;50.822;4.336;2022-12-07T11:27:47;8.00;99.90
21487;DHT22;10905;50.822;4.336;2022-12-07T11:30:20;8.10;99.90
21487;DHT22;10905;50.822;4.336;2022-12-07T11:35:45;7.80;99.90
21487;DHT22;10905;50.822;4.336;2022-12-07T11:38:15;7.70;99.90
21487;DHT22;10905;50.822;4.336;2022-12-07T11:40:48;7.70;99.90
21487;DHT22;10905;50.822;4.336;2022-12-07T11:43:33;7.80;99.90
21487;DHT22;10905;50.822;4.336;2022-12-07T11:46:04;7.70;99.90
21487;DHT22;10905;50.822;4.336;2022-12-07T11:48:46;7.60;99.90
21487;DHT22;10905;50.822;4.336;2022-12-07T11:51:16;7.60;99.90
21487;DHT22;10905;50.822;4.336;2022-12-07T11:53:48;7.60;99.90
21487;DHT22;10905;50.822;4.336;2022-12-07T11:56:18;7.60;99.90
21487;DHT22;10905;50.822;4.336;2022-12-07T11:58:55;7.80;99.90
21487;DHT22;10905;50.822;4.336;2022-12-07T12:06:30;7.90;99.90
21487;DHT22;10905;50.822;4.336;2022-12-07T12:09:18;7.80;99.90
21487;DHT22;10905;50.822;4.336;2022-12-07T12:14:26;8.00;99.90
21487;DHT22;10905;50.822;4.336;2022-12-07T12:17:07;8.00;99.90
21487;DHT22;10905;50.822;4.336;2022-12-07T12:20:14;8.00;99.90
21487;DHT22;10905;50.822;4.336;2022-12-07T12:22:46;8.10;99.90
21487;DHT22;10905;50.822;4.336;2022-12-07T12:27:50;8.10;99.90
21487;DHT22;10905;50.822;4.336;2022-12-07T12:30:37;8.10;99.90
21487;DHT22;10905;50.822;4.336;2022-12-07T12:33:25;8.10;99.90
21487;DHT22;10905;50.822;4.336;2022-12-07T12:38:52;7.90;99.90
21487;DHT22;10905;50.822;4.336;2022-12-07T12:54:30;7.90;99.90
21487;DHT22;10905;50.822;4.336;2022-12-07T12:57:13;7.90;99.90
21487;DHT22;10905;50.822;4.336;2022-12-07T12:59:42;7.80;99.90
21487;DHT22;10905;50.822;4.336;2022-12-07T13:15:52;8.40;99.90
21487;DHT22;10905;50.822;4.336;2022-12-07T13:23:37;8.40;99.90
21487;DHT22;10905;50.822;4.336;2022-12-07T13:31:42;8.50;99.90
21487;DHT22;10905;50.822;4.336;2022-12-07T13:36:56;8.60;99.90
21487;DHT22;10905;50.822;4.336;2022-12-07T13:39:24;8.50;99.90
21487;DHT22;10905;50.822;4.336;2022-12-07T13:41:56;8.40;99.90
21487;DHT22;10905;50.822;4.336;2022-12-07T13:44:23;8.30;99.90
21487;DHT22;10905;50.822;4.336;2022-12-07T13:49:31;8.60;99.90
21487;DHT22;10905;50.822;4.336;2022-12-07T13:52:13;8.60;99.90
21487;DHT22;10905;50.822;4.336;2022-12-07T13:57:22;8.60;99.90
21487;DHT22;10905;50.822;4.336;2022-12-07T13:59:49;8.50;99.90
21487;DHT22;10905;50.822;4.336;2022-12-07T14:04:45;8.50;99.90
21487;DHT22;10905;50.822;4.336;2022-12-07T14:07:28;8.60;99.90
21487;DHT22;10905;50.822;4.336;2022-12-07T14:10:03;8.50;99.90
21487;DHT22;10905;50.822;4.336;2022-12-07T14:12:30;8.20;99.90
21487;DHT22;10905;50.822;4.336;2022-12-07T14:14:57;8.00;99.90
21487;DHT22;10905;50.822;4.336;2022-12-07T14:17:25;8.00;99.90
21487;DHT22;10905;50.822;4.336;2022-12-07T14:19:54;7.90;99.90
21487;DHT22;10905;50.822;4.336;2022-12-07T14:24:51;7.70;99.90
21487;DHT22;10905;50.822;4.336;2022-12-07T14:27:22;7.70;99.90
21487;DHT22;10905;50.822;4.336;2022-12-07T14:29:48;7.60;99.90
21487;DHT22;10905;50.822;4.336;2022-12-07T14:32:24;7.50;99.90
21487;DHT22;10905;50.822;4.336;2022-12-07T14:37:27;7.30;99.90
21487;DHT22;10905;50.822;4.336;2022-12-07T14:39:52;7.00;99.90
21487;DHT22;10905;50.822;4.336;2022-12-07T14:42:19;6.70;99.90
21487;DHT22;10905;50.822;4.336;2022-12-07T14:44:45;6.50;99.90
21487;DHT22;10905;50.822;4.336;2022-12-07T14:47:11;6.40;99.90
21487;DHT22;10905;50.822;4.336;2022-12-07T14:49:37;6.40;99.90
21487;DHT22;10905;50.822;4.336;2022-12-07T14:52:03;6.40;99.90
21487;DHT22;10905;50.822;4.336;2022-12-07T14:54:31;6.30;99.90
21487;DHT22;10905;50.822;4.336;2022-12-07T14:56:58;6.40;99.90
21487;DHT22;10905;50.822;4.336;2022-12-07T14:59:23;6.40;99.90
21487;DHT22;10905;50.822;4.336;2022-12-07T15:01:49;6.30;99.90
21487;DHT22;10905;50.822;4.336;2022-12-07T15:04:15;6.40;99.90
21487;DHT22;10905;50.822;4.336;2022-12-07T15:06:40;6.50;99.90
21487;DHT22;10905;50.822;4.336;2022-12-07T15:09:10;6.50;99.90
21487;DHT22;10905;50.822;4.336;2022-12-07T15:11:36;6.50;99.90
21487;DHT22;10905;50.822;4.336;2022-12-07T15:14:02;6.60;99.90
21487;DHT22;10905;50.822;4.336;2022-12-07T15:16:35;6.50;99.90
21487;DHT22;10905;50.822;4.336;2022-12-07T15:19:01;6.60;99.90
21487;DHT22;10905;50.822;4.336;2022-12-07T15:21:27;6.70;99.90
21487;DHT22;10905;50.822;4.336;2022-12-07T15:23:53;6.70;99.90
21487;DHT22;10905;50.822;4.336;2022-12-07T15:26:19;6.70;99.90
21487;DHT22;10905;50.822;4.336;2022-12-07T15:28:45;6.80;99.90
21487;DHT22;10905;50.822;4.336;2022-12-07T15:31:15;6.80;99.90
21487;DHT22;10905;50.822;4.336;2022-12-07T15:33:41;6.70;99.90
21487;DHT22;10905;50.822;4.336;2022-12-07T15:36:07;6.70;99.90
21487;DHT22;10905;50.822;4.336;2022-12-07T15:38:32;6.80;99.90
21487;DHT22;10905;50.822;4.336;2022-12-07T15:40:58;6.70;99.90
21487;DHT22;10905;50.822;4.336;2022-12-07T15:43:24;6.60;99.90
21487;DHT22;10905;50.822;4.336;2022-12-07T15:46:08;6.40;99.90
21487;DHT22;10905;50.822;4.336;2022-12-07T15:48:33;6.40;99.90
21487;DHT22;10905;50.822;4.336;2022-12-07T15:51:07;6.50;99.90
21487;DHT22;10905;50.822;4.336;2022-12-07T15:53:33;6.50;99.90
21487;DHT22;10905;50.822;4.336;2022-12-07T15:56:00;6.40;99.90
21487;DHT22;10905;50.822;4.336;2022-12-07T15:58:25;6.40;99.90
21487;DHT22;10905;50.822;4.336;2022-12-07T16:00:51;6.50;99.90
21487;DHT22;10905;50.822;4.336;2022-12-07T16:03:17;6.60;99.90
21487;DHT22;10905;50.822;4.336;2022-12-07T16:05:49;6.60;99.90
21487;DHT22;10905;50.822;4.336;2022-12-07T16:08:14;6.50;99.90
21487;DHT22;10905;50.822;4.336;2022-12-07T16:10:40;6.60;99.90
21487;DHT22;10905;50.822;4.336;2022-12-07T16:13:09;6.60;99.90
21487;DHT22;10905;50.822;4.336;2022-12-07T16:15:42;6.60;99.90
21487;DHT22;10905;50.822;4.336;2022-12-07T16:18:08;6.60;99.90
21487;DHT22;10905;50.822;4.336;2022-12-07T16:20:33;6.60;99.90
21487;DHT22;10905;50.822;4.336;2022-12-07T16:22:59;6.60;99.90
21487;DHT22;10905;50.822;4.336;2022-12-07T16:25:25;6.70;99.90
21487;DHT22;10905;50.822;4.336;2022-12-07T16:27:51;6.70;99.90
21487;DHT22;10905;50.822;4.336;2022-12-07T16:30:17;6.60;99.90
21487;DHT22;10905;50.822;4.336;2022-12-07T16:32:43;6.60;99.90
21487;DHT22;10905;50.822;4.336;2022-12-07T16:35:10;6.50;99.90
21487;DHT22;10905;50.822;4.336;2022-12-07T16:37:36;6.50;99.90
21487;DHT22;10905;50.822;4.336;2022-12-07T16:40:02;6.60;99.90
21487;DHT22;10905;50.822;4.336;2022-12-07T16:42:32;6.50;99.90
21487;DHT22;10905;50.822;4.336;2022-12-07T16:44:58;6.50;99.90
21487;DHT22;10905;50.822;4.336;2022-12-07T16:47:23;6.60;99.90
21487;DHT22;10905;50.822;4.336;2022-12-07T16:49:49;6.60;99.90
21487;DHT22;10905;50.822;4.336;2022-12-07T16:52:15;6.60;99.90
21487;DHT22;10905;50.822;4.336;2022-12-07T16:54:40;6.60;99.90
21487;DHT22;10905;50.822;4.336;2022-12-07T16:57:06;6.50;99.90
21487;DHT22;10905;50.822;4.336;2022-12-07T16:59:32;6.70;99.90
21487;DHT22;10905;50.822;4.336;2022-12-07T17:01:57;6.70;99.90
21487;DHT22;10905;50.822;4.336;2022-12-07T17:04:23;6.60;99.90
21487;DHT22;10905;50.822;4.336;2022-12-07T17:06:48;6.60;99.90
21487;DHT22;10905;50.822;4.336;2022-12-07T17:09:14;6.60;99.90
21487;DHT22;10905;50.822;4.336;2022-12-07T17:11:43;6.60;99.90
21487;DHT22;10905;50.822;4.336;2022-12-07T17:14:09;6.70;99.90
21487;DHT22;10905;50.822;4.336;2022-12-07T17:16:53;6.60;99.90
21487;DHT22;10905;50.822;4.336;2022-12-07T17:19:19;6.60;99.90
21487;DHT22;10905;50.822;4.336;2022-12-07T17:21:46;6.60;99.90
21487;DHT22;10905;50.822;4.336;2022-12-07T17:24:14;6.70;99.90
21487;DHT22;10905;50.822;4.336;2022-12-07T17:26:41;6.80;99.90
21487;DHT22;10905;50.822;4.336;2022-12-07T17:29:07;6.80;99.90
21487;DHT22;10905;50.822;4.336;2022-12-07T17:31:34;6.80;99.90
21487;DHT22;10905;50.822;4.336;2022-12-07T17:34:00;6.90;99.90
21487;DHT22;10905;50.822;4.336;2022-12-07T17:36:28;6.90;99.90
21487;DHT22;10905;50.822;4.336;2022-12-07T17:38:54;6.70;99.90
21487;DHT22;10905;50.822;4.336;2022-12-07T17:41:28;6.80;99.90
21487;DHT22;10905;50.822;4.336;2022-12-07T17:44:15;6.70;99.90
21487;DHT22;10905;50.822;4.336;2022-12-07T17:46:42;6.60;99.90
21487;DHT22;10905;50.822;4.336;2022-12-07T17:49:08;6.70;99.90
21487;DHT22;10905;50.822;4.336;2022-12-07T17:51:34;6.60;99.90
21487;DHT22;10905;50.822;4.336;2022-12-07T17:54:19;6.70;99.90
21487;DHT22;10905;50.822;4.336;2022-12-07T17:56:45;6.70;99.90
21487;DHT22;10905;50.822;4.336;2022-12-07T17:59:11;6.70;99.90
21487;DHT22;10905;50.822;4.336;2022-12-07T18:01:38;6.70;99.90
21487;DHT22;10905;50.822;4.336;2022-12-07T18:04:04;6.80;99.90